Time;durP1;ratioP1;P1;durP2;ratioP2;P2;SDS_P1;SDS_P2;PMS_P1;PMS_P2;Temp;Humidity;BMP_temperature;BMP_pressure;BME280_temperature;BME280_humidity;BME280_pressure;Samples;Min_cycle;Max_cycle;Signal;HPM_P1;HPM_P2
2024/01/14 00:01:22;;;;;;;7.85;1.30;;;;;;;5.35;83.74;101097.81;7391031;19;20018;-64
2024/01/14 00:03:53;;;;;;;5.55;1.23;;;;;;;5.31;83.69;101084.91;7389905;19;20056;-65
2024/01/14 00:06:23;;;;;;;6.18;1.13;;;;;;;5.31;83.67;101072.63;7391242;19;20018;-65
2024/01/14 00:08:53;;;;;;;6.50;1.05;;;;;;;5.33;83.43;101051.53;7390155;19;20023;-65
2024/01/14 00:11:23;;;;;;;7.05;1.00;;;;;;;5.25;83.20;101064.16;7391043;19;20043;-65
2024/01/14 00:13:54;;;;;;;7.30;2.10;;;;;;;5.12;83.26;101058.66;7389970;19;20027;-64
2024/01/14 00:16:24;;;;;;;8.20;2.92;;;;;;;5.25;83.81;101062.38;7387790;19;20025;-62
2024/01/14 00:18:54;;;;;;;8.50;2.90;;;;;;;5.09;83.41;101046.50;7391069;19;20019;-60
2024/01/14 00:21:24;;;;;;;8.88;2.83;;;;;;;5.09;83.41;101058.78;7390462;19;20412;-57
2024/01/14 00:23:55;;;;;;;11.18;3.70;;;;;;;5.14;83.21;101062.88;7390358;19;20029;-59
2024/01/14 00:26:27;;;;;;;16.08;3.65;;;;;;;5.13;82.53;101055.94;7389267;19;20031;-58
2024/01/14 00:28:59;;;;;;;11.80;3.15;;;;;;;5.21;82.47;101055.59;7389472;19;20030;-56
2024/01/14 00:31:32;;;;;;;9.77;2.90;;;;;;;5.18;82.78;101047.84;7390981;19;20036;-58
2024/01/14 00:34:02;;;;;;;9.32;2.20;;;;;;;5.17;82.60;101054.03;7390880;19;20019;-58
2024/01/14 00:36:41;;;;;;;6.30;1.70;;;;;;;5.26;82.17;101044.84;7388972;19;20039;-58
2024/01/14 00:39:11;;;;;;;11.00;2.95;;;;;;;5.23;82.47;101050.28;7388850;19;20045;-60
2024/01/14 00:41:41;;;;;;;10.85;3.33;;;;;;;5.21;82.26;101041.63;7393393;19;20022;-59
2024/01/14 00:44:11;;;;;;;9.98;2.33;;;;;;;5.24;82.95;101050.19;7397729;19;20021;-58
2024/01/14 00:46:42;;;;;;;10.27;1.98;;;;;;;5.29;82.94;101047.34;7395558;19;20025;-59
2024/01/14 00:49:12;;;;;;;6.55;1.65;;;;;;;5.41;82.71;101048.53;7394092;19;20026;-57
2024/01/14 00:51:42;;;;;;;5.95;1.52;;;;;;;5.36;83.02;101040.88;7397610;19;20542;-59
2024/01/14 00:54:12;;;;;;;9.13;1.98;;;;;;;5.38;83.57;101033.81;7397426;19;20463;-58
2024/01/14 00:56:43;;;;;;;4.57;1.40;;;;;;;5.30;83.72;101041.16;7395838;19;20091;-59
2024/01/14 00:59:13;;;;;;;6.15;1.50;;;;;;;5.35;83.66;101044.44;7394100;19;20026;-58
2024/01/14 01:01:44;;;;;;;3.92;1.10;;;;;;;5.28;83.06;101014.16;7396886;19;20493;-60
2024/01/14 01:04:14;;;;;;;6.78;1.67;;;;;;;5.29;83.50;101031.59;7396716;19;20076;-58
2024/01/14 01:06:44;;;;;;;6.70;1.80;;;;;;;5.35;82.89;101040.03;7396996;19;20497;-59
2024/01/14 01:09:14;;;;;;;5.60;1.70;;;;;;;5.31;83.17;101021.88;7394749;19;20463;-59
2024/01/14 01:11:45;;;;;;;6.25;1.88;;;;;;;5.34;82.85;101021.72;7395138;19;20030;-59
2024/01/14 01:14:16;;;;;;;7.45;1.98;;;;;;;5.38;82.55;101031.19;7395512;19;20040;-58
2024/01/14 01:16:46;;;;;;;8.32;2.13;;;;;;;5.38;82.84;101026.78;7393731;19;20025;-59
2024/01/14 01:19:18;;;;;;;9.02;2.33;;;;;;;5.38;82.93;101011.00;7395102;19;20025;-60
2024/01/14 01:21:48;;;;;;;8.73;2.42;;;;;;;5.36;83.25;101020.72;7396477;19;20018;-59
2024/01/14 01:24:18;;;;;;;13.27;4.15;;;;;;;5.31;82.67;101006.13;7396775;19;20357;-59
2024/01/14 01:26:49;;;;;;;13.27;3.28;;;;;;;5.27;83.26;101000.19;7397099;19;20018;-61
2024/01/14 01:29:19;;;;;;;8.27;1.58;;;;;;;5.35;82.94;100994.56;7394531;19;20022;-61
2024/01/14 01:31:49;;;;;;;6.40;1.63;;;;;;;5.36;82.83;100997.09;7396368;19;20021;-60
2024/01/14 01:34:28;;;;;;;11.85;2.13;;;;;;;5.32;82.73;100986.81;7396570;19;20014;-60
2024/01/14 01:36:58;;;;;;;7.68;2.08;;;;;;;5.46;82.53;100997.50;7395139;19;20025;-60
2024/01/14 01:39:29;;;;;;;7.95;2.10;;;;;;;5.49;82.57;101005.22;7392234;19;20479;-61
2024/01/14 01:41:59;;;;;;;11.25;2.40;;;;;;;5.52;82.87;100993.72;7395805;19;20026;-61
2024/01/14 01:44:34;;;;;;;10.82;2.58;;;;;;;5.57;82.58;100989.09;7395858;19;20015;-61
2024/01/14 01:47:05;;;;;;;8.80;1.98;;;;;;;5.50;82.65;100979.84;7394286;19;20018;-61
2024/01/14 01:49:36;;;;;;;5.50;1.55;;;;;;;5.46;82.94;101000.16;7394272;19;20044;-61
2024/01/14 01:52:07;;;;;;;3.70;0.73;;;;;;;5.45;83.46;100990.53;7394246;19;20415;-60
2024/01/14 01:54:39;;;;;;;5.00;0.80;;;;;;;5.43;83.89;101002.06;7394099;19;20373;-61
2024/01/14 01:57:10;;;;;;;4.53;1.00;;;;;;;5.34;83.89;100983.22;7394272;19;20023;-60
2024/01/14 01:59:43;;;;;;;5.03;0.82;;;;;;;5.38;84.24;100983.91;7393389;19;20018;-61
2024/01/14 02:02:14;;;;;;;5.97;0.90;;;;;;;5.35;84.15;100982.28;7393278;19;20491;-61
2024/01/14 02:04:45;;;;;;;4.93;1.02;;;;;;;5.37;84.65;100983.03;7393553;19;20421;-60
2024/01/14 02:07:18;;;;;;;3.58;1.20;;;;;;;5.33;84.65;100967.50;7395031;19;20048;-60
2024/01/14 02:09:49;;;;;;;5.85;1.10;;;;;;;5.37;84.38;100975.16;7392735;19;20361;-61
2024/01/14 02:12:20;;;;;;;4.57;0.73;;;;;;;5.38;84.60;100970.78;7394587;19;20057;-61
2024/01/14 02:14:50;;;;;;;6.38;1.27;;;;;;;5.36;84.32;100972.63;7393286;19;20019;-61
2024/01/14 02:17:21;;;;;;;5.57;1.30;;;;;;;5.38;84.68;100965.53;7392100;19;20073;-61
2024/01/14 02:19:52;;;;;;;9.75;1.30;;;;;;;5.37;84.76;100966.44;7393820;19;20018;-60
2024/01/14 02:22:29;;;;;;;6.22;1.10;;;;;;;5.40;85.03;100978.56;7395008;19;20459;-59
2024/01/14 02:25:01;;;;;;;8.32;1.77;;;;;;;5.42;84.57;100974.97;7395421;19;20040;-59
2024/01/14 02:27:37;;;;;;;11.95;2.42;;;;;;;5.42;84.76;100981.97;7394432;19;20018;-59
2024/01/14 02:30:12;;;;;;;12.05;3.72;;;;;;;5.29;84.74;100958.06;7392538;19;20023;-59
2024/01/14 02:32:41;;;;;;;12.73;3.28;;;;;;;5.40;84.58;100963.66;7393230;19;20018;-54
2024/01/14 02:35:12;;;;;;;13.30;3.65;;;;;;;5.37;84.55;100962.03;7394670;19;20035;-55
2024/01/14 02:37:45;;;;;;;14.20;3.72;;;;;;;5.40;83.86;100957.56;7391691;19;20029;-56
2024/01/14 02:40:16;;;;;;;11.43;2.77;;;;;;;5.36;83.29;100962.97;7392484;19;20014;-57
2024/01/14 02:42:45;;;;;;;11.15;2.67;;;;;;;5.37;83.08;100955.94;7394085;19;20051;-59
2024/01/14 02:45:15;;;;;;;13.63;2.67;;;;;;;5.46;83.10;100952.88;7394101;19;20366;-56
2024/01/14 02:47:45;;;;;;;11.95;2.70;;;;;;;5.49;83.15;100950.06;7393452;19;20546;-57
2024/01/14 02:50:15;;;;;;;12.50;3.15;;;;;;;5.54;83.10;100957.75;7390027;19;20033;-59
2024/01/14 02:52:43;;;;;;;12.93;3.63;;;;;;;5.57;83.02;100954.94;7393684;19;20047;-60
2024/01/14 02:55:14;;;;;;;13.32;4.90;;;;;;;5.48;83.61;100958.03;7393978;19;20026;-61
2024/01/14 02:57:42;;;;;;;15.75;4.40;;;;;;;5.38;83.85;100949.78;7390136;19;20022;-61
2024/01/14 03:00:13;;;;;;;8.00;2.60;;;;;;;5.28;83.06;100944.09;7389662;19;20014;-61
2024/01/14 03:02:43;;;;;;;9.18;1.90;;;;;;;5.25;82.46;100952.13;7393567;19;20033;-62
2024/01/14 03:05:13;;;;;;;10.02;1.70;;;;;;;5.12;81.55;100949.25;7391968;19;20033;-62
2024/01/14 03:07:43;;;;;;;9.80;1.42;;;;;;;5.11;81.36;100949.31;7393016;19;20364;-59
2024/01/14 03:10:13;;;;;;;10.93;1.73;;;;;;;5.12;80.23;100961.53;7391439;19;20048;-62
2024/01/14 03:12:42;;;;;;;10.35;1.95;;;;;;;5.10;80.49;100951.09;7392389;19;20089;-62
2024/01/14 03:15:13;;;;;;;8.40;1.52;;;;;;;5.04;80.51;100933.03;7391979;19;20014;-62
2024/01/14 03:17:41;;;;;;;7.50;1.70;;;;;;;5.03;80.47;100939.16;7390557;19;20363;-60
2024/01/14 03:20:12;;;;;;;9.35;1.95;;;;;;;4.99;81.13;100940.25;7390970;19;20039;-60
2024/01/14 03:22:42;;;;;;;9.90;2.67;;;;;;;5.05;81.31;100950.47;7392896;19;20096;-60
2024/01/14 03:25:13;;;;;;;13.90;2.50;;;;;;;5.06;81.76;100941.66;7393049;19;20019;-64
2024/01/14 03:27:42;;;;;;;11.75;2.55;;;;;;;5.08;82.01;100933.72;7391213;19;20014;-62
2024/01/14 03:30:12;;;;;;;14.50;2.85;;;;;;;5.19;81.67;100938.44;7390635;19;20026;-60
2024/01/14 03:32:42;;;;;;;13.43;3.30;;;;;;;5.22;81.88;100946.16;7390719;19;20021;-62
2024/01/14 03:35:12;;;;;;;14.82;3.42;;;;;;;5.17;82.03;100940.31;7392721;19;20022;-62
2024/01/14 03:37:41;;;;;;;12.80;2.35;;;;;;;5.07;82.31;100948.59;7390807;19;20022;-59
2024/01/14 03:40:11;;;;;;;9.88;2.72;;;;;;;5.14;82.54;100957.03;7388620;19;20035;-60
2024/01/14 03:42:42;;;;;;;11.98;2.00;;;;;;;5.14;82.47;100954.41;7390713;19;20021;-60
2024/01/14 03:45:12;;;;;;;10.18;2.28;;;;;;;5.08;82.85;100955.56;7392746;19;20347;-60
2024/01/14 03:47:41;;;;;;;13.88;3.03;;;;;;;5.08;83.23;100941.59;7392021;19;20026;-60
2024/01/14 03:50:12;;;;;;;13.52;3.20;;;;;;;5.11;82.68;100952.81;7390055;19;20039;-60
2024/01/14 03:52:41;;;;;;;15.38;4.07;;;;;;;5.08;82.51;100955.56;7391897;19;20655;-60
2024/01/14 03:55:11;;;;;;;11.32;3.05;;;;;;;5.10;82.29;100960.72;7391785;19;20023;-60
2024/01/14 03:57:41;;;;;;;17.00;3.90;;;;;;;5.07;82.02;100964.34;7389187;19;20399;-61
2024/01/14 04:00:12;;;;;;;12.32;3.65;;;;;;;5.07;82.04;100955.63;7389836;19;20031;-60
2024/01/14 04:02:42;;;;;;;13.50;3.63;;;;;;;5.04;81.29;100956.66;7391721;19;20531;-60
2024/01/14 04:05:13;;;;;;;13.77;2.95;;;;;;;5.01;80.64;100951.53;7391429;19;20018;-60
2024/01/14 04:07:41;;;;;;;10.75;3.10;;;;;;;5.05;80.89;100968.84;7391450;19;20018;-60
2024/01/14 04:10:12;;;;;;;12.85;3.75;;;;;;;5.12;80.32;100958.91;7388988;19;20812;-61
2024/01/14 04:12:42;;;;;;;23.73;5.80;;;;;;;5.13;80.33;100947.47;7391161;19;20046;-60
2024/01/14 04:15:13;;;;;;;18.48;4.75;;;;;;;5.12;80.27;100958.91;7390897;19;20039;-60
2024/01/14 04:17:42;;;;;;;15.27;3.47;;;;;;;5.12;79.32;100954.50;7395811;19;20021;-60
2024/01/14 04:20:13;;;;;;;12.60;3.63;;;;;;;5.03;79.89;100949.66;7394991;19;20022;-58
2024/01/14 04:22:42;;;;;;;15.13;3.22;;;;;;;5.11;80.00;100954.56;7398265;19;20011;-60
2024/01/14 04:25:13;;;;;;;16.30;3.38;;;;;;;5.16;79.35;100955.19;7398364;19;20018;-60
2024/01/14 04:27:42;;;;;;;14.20;3.63;;;;;;;5.18;79.12;100955.13;7398220;19;20015;-60
2024/01/14 04:30:13;;;;;;;14.68;3.25;;;;;;;5.18;78.98;100955.97;7395284;19;20018;-60
2024/01/14 04:32:43;;;;;;;12.95;3.13;;;;;;;5.15;79.01;100945.59;7398581;19;20017;-59
2024/01/14 04:35:17;;;;;;;14.25;3.17;;;;;;;5.11;79.23;100946.69;7398503;19;20018;-60
2024/01/14 04:37:45;;;;;;;14.07;3.38;;;;;;;5.09;79.43;100949.38;7395258;19;20014;-60
2024/01/14 04:40:15;;;;;;;11.52;3.38;;;;;;;5.07;79.92;100942.50;7394481;19;20022;-59
2024/01/14 04:42:43;;;;;;;14.25;4.03;;;;;;;5.04;79.65;100953.16;7397545;19;20043;-60
2024/01/14 04:45:13;;;;;;;12.75;3.00;;;;;;;5.00;79.89;100935.84;7398295;19;20023;-59
2024/01/14 04:47:42;;;;;;;14.48;2.85;;;;;;;4.89;80.19;100934.59;7397693;19;20011;-61
2024/01/14 04:50:12;;;;;;;14.68;3.05;;;;;;;4.89;80.79;100937.22;7394826;19;20019;-60
2024/01/14 04:52:42;;;;;;;18.10;3.85;;;;;;;4.97;80.21;100931.63;7398094;19;20014;-61
2024/01/14 04:55:13;;;;;;;11.95;2.78;;;;;;;5.03;79.37;100930.44;7396768;19;20026;-61
2024/01/14 04:57:43;;;;;;;13.70;3.30;;;;;;;5.00;79.08;100939.34;7397347;19;20006;-61
2024/01/14 05:00:13;;;;;;;11.40;2.17;;;;;;;5.00;79.25;100934.09;7395370;19;20034;-61
2024/01/14 05:02:43;;;;;;;12.20;2.55;;;;;;;5.03;79.04;100928.69;7397885;19;20488;-61
2024/01/14 05:05:14;;;;;;;13.48;3.15;;;;;;;5.06;78.89;100930.31;7397141;19;20014;-58
2024/01/14 05:07:44;;;;;;;11.43;2.25;;;;;;;4.89;79.60;100913.59;7396431;19;20022;-60
2024/01/14 05:10:14;;;;;;;6.97;1.83;;;;;;;4.91;79.75;100917.94;7394227;19;20524;-60
2024/01/14 05:12:44;;;;;;;11.55;2.53;;;;;;;4.84;80.42;100918.19;7396620;19;20466;-60
2024/01/14 05:15:14;;;;;;;12.25;2.47;;;;;;;4.79;80.77;100909.72;7396635;19;20025;-61
2024/01/14 05:17:43;;;;;;;9.68;1.73;;;;;;;4.75;80.87;100905.53;7395107;19;20014;-61
2024/01/14 05:20:14;;;;;;;9.52;1.63;;;;;;;4.85;81.09;100905.97;7393900;19;20018;-61
2024/01/14 05:22:42;;;;;;;10.77;2.10;;;;;;;4.84;81.16;100902.47;7396403;19;20114;-57
2024/01/14 05:25:12;;;;;;;10.85;2.30;;;;;;;4.61;81.73;100889.59;7396230;19;20018;-62
2024/01/14 05:27:42;;;;;;;11.75;2.10;;;;;;;4.62;82.21;100894.78;7395421;19;20014;-61
2024/01/14 05:30:13;;;;;;;11.85;1.90;;;;;;;4.67;82.09;100899.78;7394114;19;20014;-62
2024/01/14 05:32:42;;;;;;;13.07;2.50;;;;;;;4.68;81.90;100900.66;7396442;19;20026;-61
2024/01/14 05:35:13;;;;;;;13.60;2.47;;;;;;;4.77;81.38;100897.56;7396206;19;20015;-59
2024/01/14 05:37:42;;;;;;;11.65;2.78;;;;;;;4.57;81.41;100874.91;7394884;19;20015;-61
2024/01/14 05:40:13;;;;;;;15.60;2.83;;;;;;;4.65;81.43;100885.88;7394179;19;20369;-61
2024/01/14 05:42:43;;;;;;;12.57;2.38;;;;;;;4.69;81.23;100890.06;7396243;19;20032;-61
2024/01/14 05:45:13;;;;;;;10.48;1.98;;;;;;;4.64;81.51;100869.31;7396622;19;20015;-60
2024/01/14 05:47:42;;;;;;;13.27;2.55;;;;;;;4.65;81.64;100883.28;7397183;19;20030;-61
2024/01/14 05:50:12;;;;;;;13.38;2.80;;;;;;;4.49;81.35;100870.03;7393117;19;20015;-62
2024/01/14 05:52:42;;;;;;;13.15;3.05;;;;;;;4.53;81.35;100874.22;7390770;19;20023;-61
2024/01/14 05:55:12;;;;;;;11.35;1.75;;;;;;;4.51;81.58;100875.22;7393042;19;20022;-62
2024/01/14 05:57:58;;;;;;;10.25;2.08;;;;;;;4.50;81.63;100876.13;7390863;19;20085;-63
2024/01/14 06:00:32;;;;;;;10.02;1.85;;;;;;;4.52;81.21;100869.03;7390299;19;20014;-62
2024/01/14 06:03:03;;;;;;;9.90;2.15;;;;;;;4.47;81.20;100869.28;7395011;19;20046;-62
2024/01/14 06:05:35;;;;;;;11.25;2.08;;;;;;;4.48;81.41;100875.34;7393500;19;20046;-62
2024/01/14 06:08:06;;;;;;;12.65;2.33;;;;;;;4.48;81.73;100877.97;7393818;19;20014;-62
2024/01/14 06:10:36;;;;;;;10.77;2.22;;;;;;;4.46;81.35;100877.19;7392089;19;20018;-62
2024/01/14 06:13:12;;;;;;;7.57;1.80;;;;;;;4.49;81.66;100880.50;7395194;19;20018;-62
2024/01/14 06:15:42;;;;;;;14.80;2.22;;;;;;;4.48;81.49;100872.72;7394822;19;20025;-62
2024/01/14 06:18:13;;;;;;;12.88;2.17;;;;;;;4.44;81.63;100873.81;7393924;19;20014;-59
2024/01/14 06:20:43;;;;;;;13.35;2.33;;;;;;;4.27;81.71;100864.91;7394614;19;20022;-58
2024/01/14 06:23:16;;;;;;;15.43;2.23;;;;;;;4.24;82.17;100865.09;7395135;19;20025;-59
2024/01/14 06:25:47;;;;;;;15.95;2.00;;;;;;;4.23;82.04;100863.34;7394945;19;20293;-61
2024/01/14 06:28:17;;;;;;;10.25;2.35;;;;;;;4.28;81.59;100869.25;7394793;19;20087;-59
2024/01/14 06:30:48;;;;;;;13.18;2.80;;;;;;;4.22;81.68;100868.69;7394148;19;20022;-58
2024/01/14 06:33:18;;;;;;;13.52;2.30;;;;;;;4.22;81.87;100864.28;7395173;19;20359;-62
2024/01/14 06:35:48;;;;;;;12.38;2.40;;;;;;;4.12;81.96;100868.22;7394554;19;20011;-59
2024/01/14 06:38:19;;;;;;;13.63;2.10;;;;;;;4.05;82.18;100859.81;7388962;19;20846;-59
2024/01/14 06:40:49;;;;;;;18.73;2.28;;;;;;;4.07;82.44;100864.97;7390652;19;20396;-59
2024/01/14 06:43:36;;;;;;;11.20;1.88;;;;;;;4.14;82.06;100863.78;7389390;19;20456;-60
2024/01/14 06:46:07;;;;;;;13.80;2.15;;;;;;;4.12;81.66;100850.78;7392759;19;20018;-60
2024/01/14 06:48:37;;;;;;;11.35;2.28;;;;;;;4.12;81.97;100852.50;7391572;19;20022;-60
2024/01/14 06:51:08;;;;;;;14.18;2.30;;;;;;;4.18;81.73;100857.50;7388288;19;20497;-60
2024/01/14 06:53:58;;;;;;;14.90;2.10;;;;;;;4.23;81.47;100841.53;7397048;19;20018;-59
2024/01/14 06:56:32;;;;;;;14.02;2.40;;;;;;;4.21;81.25;100827.69;7392854;19;20018;-60
2024/01/14 06:59:03;;;;;;;10.18;1.67;;;;;;;4.28;81.07;100840.44;7391631;19;20014;-60
2024/01/14 07:01:36;;;;;;;10.05;1.95;;;;;;;4.27;80.87;100845.72;7393476;19;20026;-60
2024/01/14 07:04:07;;;;;;;11.32;1.80;;;;;;;4.23;81.02;100842.41;7393521;19;20027;-60
2024/01/14 07:06:38;;;;;;;14.13;2.25;;;;;;;4.14;81.24;100843.66;7393125;19;20014;-60
2024/01/14 07:09:10;;;;;;;11.98;1.50;;;;;;;4.22;80.95;100848.56;7391911;19;20014;-60
2024/01/14 07:11:41;;;;;;;12.52;1.95;;;;;;;4.10;81.53;100854.38;7393732;19;20022;-60
2024/01/14 07:14:27;;;;;;;12.82;1.85;;;;;;;4.05;81.58;100853.75;7395284;19;20025;-60
2024/01/14 07:16:58;;;;;;;9.07;2.10;;;;;;;4.08;81.80;100843.09;7391123;19;20022;-59
2024/01/14 07:19:31;;;;;;;10.60;1.85;;;;;;;4.11;81.73;100842.97;7390265;19;20496;-60
2024/01/14 07:22:04;;;;;;;11.35;2.20;;;;;;;4.11;81.91;100846.44;7395344;19;20475;-60
2024/01/14 07:24:37;;;;;;;12.05;2.50;;;;;;;4.11;81.67;100842.97;7392839;19;20051;-60
2024/01/14 07:27:07;;;;;;;10.82;1.73;;;;;;;4.09;81.69;100840.41;7393004;19;20379;-60
2024/01/14 07:29:38;;;;;;;13.30;2.50;;;;;;;4.13;81.84;100846.38;7390474;19;20027;-60
2024/01/14 07:32:08;;;;;;;11.70;2.00;;;;;;;4.14;81.89;100845.44;7392852;19;20043;-61
2024/01/14 07:34:38;;;;;;;11.18;2.08;;;;;;;4.18;81.46;100841.75;7392358;19;20022;-59
2024/01/14 07:37:09;;;;;;;11.85;1.80;;;;;;;4.10;81.77;100849.97;7392191;19;20049;-60
2024/01/14 07:39:39;;;;;;;14.75;2.25;;;;;;;4.06;82.27;100847.56;7389331;19;20015;-60
2024/01/14 07:42:10;;;;;;;14.90;2.65;;;;;;;4.06;82.27;100842.31;7392167;19;20025;-60
2024/01/14 07:44:41;;;;;;;12.00;1.95;;;;;;;4.14;82.07;100843.66;7391877;19;20031;-60
2024/01/14 07:47:11;;;;;;;14.20;2.53;;;;;;;4.15;82.24;100850.59;7391443;19;20028;-60
2024/01/14 07:49:41;;;;;;;12.75;2.63;;;;;;;4.15;82.42;100845.38;7389160;19;20035;-59
2024/01/14 07:52:08;;;;;;;13.70;2.20;;;;;;;4.14;82.18;100838.44;7394168;19;20018;-59
2024/01/14 07:54:35;;;;;;;12.65;1.98;;;;;;;4.22;82.00;100842.47;7390374;19;20177;-60
2024/01/14 07:57:05;;;;;;;9.25;1.83;;;;;;;4.21;82.16;100852.13;7391160;19;20010;-59
2024/01/14 07:59:37;;;;;;;11.63;2.15;;;;;;;4.27;81.93;100849.19;7389579;19;20019;-58
2024/01/14 08:02:08;;;;;;;11.63;2.00;;;;;;;4.14;82.21;100850.69;7390153;19;20030;-58
2024/01/14 08:04:38;;;;;;;11.35;1.90;;;;;;;4.16;82.05;100846.25;7394085;19;20033;-60
2024/01/14 08:07:09;;;;;;;10.48;2.15;;;;;;;4.15;82.30;100849.75;7392078;19;20034;-60
2024/01/14 08:09:40;;;;;;;10.93;2.13;;;;;;;4.18;82.02;100846.16;7389316;19;20043;-60
2024/01/14 08:12:10;;;;;;;10.55;1.98;;;;;;;4.18;82.39;100835.69;7388940;19;20055;-60
2024/01/14 08:14:41;;;;;;;14.25;2.47;;;;;;;4.21;82.00;100849.50;7390917;19;20029;-60
2024/01/14 08:17:11;;;;;;;14.25;1.80;;;;;;;4.28;81.60;100847.44;7391073;19;20022;-60
2024/01/14 08:19:42;;;;;;;11.63;2.20;;;;;;;4.23;81.74;100846.78;7388911;19;20022;-60
2024/01/14 08:22:16;;;;;;;10.23;1.88;;;;;;;4.24;82.24;100838.88;7393499;19;20019;-60
2024/01/14 08:24:47;;;;;;;8.48;1.70;;;;;;;4.25;81.93;100831.84;7389702;19;20021;-60
2024/01/14 08:27:17;;;;;;;11.00;1.65;;;;;;;4.30;82.17;100835.09;7390515;19;20014;-60
2024/01/14 08:29:48;;;;;;;11.98;1.92;;;;;;;4.21;82.11;100818.03;7388764;19;20014;-60
2024/01/14 08:32:18;;;;;;;12.90;2.10;;;;;;;4.31;82.18;100831.56;7390547;19;20022;-60
2024/01/14 08:34:49;;;;;;;9.02;1.90;;;;;;;4.26;81.87;100833.53;7390631;19;20014;-59
2024/01/14 08:37:19;;;;;;;11.45;2.28;;;;;;;4.40;81.75;100826.75;7390407;19;20019;-58
2024/01/14 08:39:50;;;;;;;9.82;1.80;;;;;;;4.47;81.32;100832.56;7392302;19;20495;-58
2024/01/14 08:42:35;;;;;;;8.80;1.88;;;;;;;4.48;81.14;100825.53;7386638;19;20030;-59
2024/01/14 08:45:22;;;;;;;10.05;1.90;;;;;;;4.44;81.99;100811.72;7385738;19;20336;-57
2024/01/14 08:47:56;;;;;;;11.18;2.20;;;;;;;4.45;81.83;100817.81;7389971;19;20027;-60
2024/01/14 08:50:27;;;;;;;12.02;2.35;;;;;;;4.45;82.33;100821.28;7387612;19;20022;-57
2024/01/14 08:52:57;;;;;;;15.02;2.10;;;;;;;4.59;81.77;100820.63;7390118;19;20089;-59
2024/01/14 08:55:28;;;;;;;8.73;1.63;;;;;;;4.58;81.45;100819.78;7388610;19;20044;-59
2024/01/14 08:58:00;;;;;;;15.10;2.00;;;;;;;4.60;81.67;100832.81;7392752;19;20081;-59
2024/01/14 09:00:35;;;;;;;9.77;2.00;;;;;;;4.56;81.86;100821.63;7387134;19;20022;-60
2024/01/14 09:03:11;;;;;;;9.52;2.20;;;;;;;4.59;81.79;100818.84;7393004;19;20022;-59
2024/01/14 09:05:42;;;;;;;10.68;2.00;;;;;;;4.63;81.74;100816.94;7397389;19;20021;-59
2024/01/14 09:08:13;;;;;;;10.90;1.90;;;;;;;4.67;81.68;100820.28;7397030;19;20078;-60
2024/01/14 09:10:46;;;;;;;11.18;2.10;;;;;;;4.57;82.13;100815.44;7394748;19;20051;-62
2024/01/14 09:13:19;;;;;;;7.40;1.90;;;;;;;4.61;81.96;100821.41;7397568;19;20018;-60
2024/01/14 09:15:50;;;;;;;13.98;2.35;;;;;;;4.64;81.69;100803.75;7401103;19;20425;-60
2024/01/14 09:18:20;;;;;;;13.10;1.95;;;;;;;4.72;81.05;100808.63;7397920;19;20044;-59
2024/01/14 09:20:51;;;;;;;12.73;1.65;;;;;;;4.68;81.35;100816.72;7394607;19;20018;-58
2024/01/14 09:23:21;;;;;;;11.60;1.80;;;;;;;4.68;81.23;100814.09;7397127;19;20475;-59
2024/01/14 09:25:51;;;;;;;9.05;1.90;;;;;;;4.84;80.72;100821.13;7396591;19;20018;-59
2024/01/14 09:28:19;;;;;;;15.10;2.65;;;;;;;4.95;80.43;100809.25;7395521;19;20360;-59
2024/01/14 09:30:50;;;;;;;15.40;2.42;;;;;;;4.99;80.26;100803.78;7396082;19;20371;-56
2024/01/14 09:33:20;;;;;;;10.48;1.98;;;;;;;4.95;80.74;100811.88;7396121;19;20601;-59
2024/01/14 09:35:51;;;;;;;17.83;2.10;;;;;;;4.92;80.63;100801.53;7396190;19;20361;-60
2024/01/14 09:38:22;;;;;;;9.13;2.00;;;;;;;5.04;80.45;100803.59;7395646;19;20010;-59
2024/01/14 09:41:02;;;;;;;10.43;2.20;;;;;;;5.15;80.42;100811.72;7395404;19;20014;-58
2024/01/14 09:43:43;;;;;;;8.95;2.17;;;;;;;5.20;80.10;100803.66;7394213;19;20022;-60
2024/01/14 09:46:13;;;;;;;11.77;2.50;;;;;;;5.30;79.73;100805.75;7395471;19;20015;-58
2024/01/14 09:48:48;;;;;;;10.93;2.03;;;;;;;5.28;79.65;100806.72;7394756;19;20026;-59
2024/01/14 09:51:27;;;;;;;13.05;2.20;;;;;;;5.22;79.84;100797.38;7396586;19;20018;-59
2024/01/14 09:54:00;;;;;;;12.52;2.22;;;;;;;5.19;80.09;100804.56;7396051;19;20033;-58
2024/01/14 09:56:37;;;;;;;10.00;1.83;;;;;;;5.14;79.96;100800.41;7395437;19;20486;-58
2024/01/14 09:59:09;;;;;;;9.95;2.10;;;;;;;5.14;80.09;100795.13;7393796;19;20015;-59
2024/01/14 10:01:40;;;;;;;8.20;1.75;;;;;;;5.32;79.54;100800.41;7395671;19;20035;-60
2024/01/14 10:04:10;;;;;;;11.73;1.90;;;;;;;5.40;79.59;100802.63;7393495;19;20035;-60
2024/01/14 10:06:43;;;;;;;12.00;2.25;;;;;;;5.33;79.24;100783.72;7393794;19;20490;-60
2024/01/14 10:09:14;;;;;;;12.33;2.23;;;;;;;5.51;79.32;100789.78;7393922;19;20010;-60
2024/01/14 10:11:46;;;;;;;9.82;2.17;;;;;;;5.42;79.05;100785.00;7396512;19;20027;-60
2024/01/14 10:14:16;;;;;;;13.18;1.95;;;;;;;5.42;79.44;100787.63;7397214;19;20036;-59
2024/01/14 10:16:47;;;;;;;13.20;2.15;;;;;;;5.48;79.47;100774.19;7395136;19;20011;-55
2024/01/14 10:19:25;;;;;;;11.00;2.25;;;;;;;5.38;79.47;100774.69;7393333;19;20022;-59
2024/01/14 10:21:57;;;;;;;8.50;2.00;;;;;;;5.40;79.66;100773.75;7395842;19;20023;-60
2024/01/14 10:24:53;;;;;;;10.27;1.95;;;;;;;5.52;79.30;100770.47;7394406;19;20344;-60
2024/01/14 10:27:25;;;;;;;10.35;1.85;;;;;;;5.51;78.79;100769.63;7394455;19;20015;-60
2024/01/14 10:30:10;;;;;;;7.05;1.65;;;;;;;5.63;78.83;100761.09;7391908;19;20014;-59
2024/01/14 10:32:42;;;;;;;10.55;1.80;;;;;;;5.69;78.60;100759.09;7394058;19;20014;-60
2024/01/14 10:35:39;;;;;;;12.93;1.73;;;;;;;5.68;78.52;100750.34;7393852;19;20015;-58
2024/01/14 10:38:10;;;;;;;10.73;1.80;;;;;;;5.83;78.29;100743.41;7394198;19;20709;-60
2024/01/14 10:40:44;;;;;;;11.90;1.98;;;;;;;5.86;78.57;100733.59;7391747;19;20026;-60
2024/01/14 10:43:15;;;;;;;6.75;1.65;;;;;;;5.94;78.44;100732.34;7397621;19;20018;-60
2024/01/14 10:45:47;;;;;;;8.45;2.15;;;;;;;5.93;78.74;100728.88;7393589;19;20026;-60
2024/01/14 10:48:23;;;;;;;7.13;1.70;;;;;;;6.02;78.40;100724.91;7392167;19;20018;-58
2024/01/14 10:50:57;;;;;;;11.80;2.08;;;;;;;5.96;78.81;100707.69;7394253;19;20371;-60
2024/01/14 10:53:41;;;;;;;9.63;1.60;;;;;;;6.07;78.54;100713.22;7393355;19;20028;-57
2024/01/14 10:56:20;;;;;;;9.63;1.90;;;;;;;6.09;78.42;100713.94;7391222;19;20026;-60
2024/01/14 10:58:53;;;;;;;10.60;1.75;;;;;;;6.12;78.08;100704.22;7392167;19;20018;-60
2024/01/14 11:01:25;;;;;;;9.23;1.67;;;;;;;6.06;78.21;100700.97;7393003;19;20031;-60
2024/01/14 11:03:56;;;;;;;12.63;2.63;;;;;;;5.96;78.49;100693.72;7392781;19;20395;-59
2024/01/14 11:06:28;;;;;;;9.73;1.88;;;;;;;5.94;78.31;100693.78;7393230;19;20026;-60
2024/01/14 11:08:58;;;;;;;11.00;1.95;;;;;;;6.02;77.73;100693.34;7391661;19;20014;-60
2024/01/14 11:11:37;;;;;;;;;;;;;;;6.08;76.77;100679.88;7393599;19;20037;-60
2024/01/14 11:14:26;;;;;;;8.90;1.50;;;;;;;6.05;77.06;100669.53;7391115;19;20255;-60
2024/01/14 11:17:09;;;;;;;9.80;1.85;;;;;;;5.94;77.40;100670.13;7390691;19;20030;-60
2024/01/14 11:19:42;;;;;;;10.73;1.67;;;;;;;5.96;77.36;100670.06;7390390;19;20378;-59
2024/01/14 11:22:19;;;;;;;10.18;1.70;;;;;;;6.00;77.46;100667.16;7393994;19;20018;-57
2024/01/14 11:25:14;;;;;;;9.70;1.70;;;;;;;5.88;77.52;100649.44;7390555;19;20015;-60
2024/01/14 11:27:44;;;;;;;10.23;1.40;;;;;;;6.04;77.08;100655.53;7390744;19;20146;-60
2024/01/14 11:30:18;;;;;;;11.48;1.88;;;;;;;6.12;76.47;100651.63;7390720;19;20646;-60
2024/01/14 11:32:48;;;;;;;8.20;1.77;;;;;;;5.95;76.94;100649.94;7391908;19;20018;-60
2024/01/14 11:35:33;;;;;;;7.25;1.40;;;;;;;6.14;75.99;100644.50;7391735;19;20019;-61
2024/01/14 11:38:03;;;;;;;8.25;1.60;;;;;;;5.99;76.42;100647.09;7393998;19;20142;-61
2024/01/14 11:40:36;;;;;;;7.32;1.38;;;;;;;6.05;76.57;100635.34;7389246;19;20027;-61
2024/01/14 11:43:08;;;;;;;8.07;1.83;;;;;;;6.24;76.22;100632.53;7392136;19;20015;-61
2024/01/14 11:45:41;;;;;;;7.30;1.63;;;;;;;6.25;76.21;100631.59;7390235;19;20022;-61
2024/01/14 11:48:12;;;;;;;7.32;1.17;;;;;;;6.32;75.85;100625.03;7391274;19;20014;-61
2024/01/14 11:50:48;;;;;;;8.57;1.40;;;;;;;6.21;75.97;100616.91;7391244;19;20014;-61